Time;durP1;ratioP1;P1;durP2;ratioP2;P2;SDS_P1;SDS_P2;PMS_P1;PMS_P2;Temp;Humidity;BMP_temperature;BMP_pressure;BME280_temperature;BME280_humidity;BME280_pressure;Samples;Min_cycle;Max_cycle;Signal;HPM_P1;HPM_P2
2020/12/17 00:00:22;;;;;;;8.90;8.20;;;8.70;99.90;;;;;;5071659;28;20841;-59
2020/12/17 00:02:48;;;;;;;8.03;7.07;;;8.70;99.90;;;;;;5071618;28;20167;-59
2020/12/17 00:05:14;;;;;;;8.63;7.90;;;8.70;99.90;;;;;;5075044;28;20485;-59
2020/12/17 00:07:40;;;;;;;7.23;6.63;;;8.70;99.90;;;;;;5074851;28;20466;-59
2020/12/17 00:10:07;;;;;;;13.43;9.10;;;8.70;99.90;;;;;;5075183;28;20777;-57
2020/12/17 00:12:59;;;;;;;11.60;8.27;;;8.70;99.90;;;;;;5075126;28;20874;-59
2020/12/17 00:15:24;;;;;;;10.63;9.53;;;8.60;99.90;;;;;;5075017;28;20418;-59
2020/12/17 00:17:52;;;;;;;8.50;7.80;;;8.60;99.90;;;;;;5074768;28;20475;-59
2020/12/17 00:20:20;;;;;;;10.40;8.30;;;8.60;99.90;;;;;;5075338;28;20173;-59
2020/12/17 00:22:46;;;;;;;7.87;7.20;;;8.70;99.90;;;;;;5074797;28;20425;-59
2020/12/17 00:25:15;;;;;;;8.13;7.50;;;8.60;99.90;;;;;;5075042;28;20440;-59
2020/12/17 00:27:41;;;;;;;9.30;8.33;;;8.60;99.90;;;;;;5074843;28;20901;-58
2020/12/17 00:30:11;;;;;;;8.47;7.73;;;8.70;99.90;;;;;;5074978;28;20405;-57
2020/12/17 00:32:37;;;;;;;13.67;8.70;;;8.70;99.90;;;;;;5074850;28;20413;-59
2020/12/17 00:35:03;;;;;;;13.10;8.40;;;8.80;99.90;;;;;;5075006;28;20433;-59
2020/12/17 00:37:30;;;;;;;9.30;8.50;;;8.80;99.90;;;;;;5075022;28;20463;-58
2020/12/17 00:39:56;;;;;;;10.77;9.20;;;8.80;99.90;;;;;;5074287;28;20409;-59
2020/12/17 00:42:22;;;;;;;8.40;7.60;;;8.80;99.90;;;;;;5074528;28;20495;-59
2020/12/17 00:44:48;;;;;;;8.17;7.43;;;8.70;99.90;;;;;;5073988;28;20460;-58
2020/12/17 00:47:14;;;;;;;10.23;9.27;;;8.80;99.90;;;;;;5074005;28;20231;-59
2020/12/17 00:49:39;;;;;;;9.20;7.77;;;8.80;99.90;;;;;;5074217;28;20408;-59
2020/12/17 00:52:05;;;;;;;10.03;9.13;;;8.80;99.90;;;;;;5074127;28;20159;-58
2020/12/17 00:54:30;;;;;;;8.80;8.00;;;8.90;99.90;;;;;;5074290;28;20628;-58
2020/12/17 00:56:56;;;;;;;7.73;7.03;;;8.90;99.90;;;;;;5073717;28;20523;-58
2020/12/17 00:59:21;;;;;;;9.73;8.77;;;8.90;99.90;;;;;;5074091;28;20262;-59
2020/12/17 01:01:48;;;;;;;8.50;7.80;;;8.90;99.90;;;;;;5073727;28;20197;-59
2020/12/17 01:04:14;;;;;;;9.20;8.33;;;9.00;99.90;;;;;;5073726;28;20612;-59
2020/12/17 01:06:40;;;;;;;10.73;8.20;;;8.90;99.90;;;;;;5073802;28;20437;-59
2020/12/17 01:09:06;;;;;;;10.63;9.53;;;9.00;99.90;;;;;;5073900;28;20492;-59
2020/12/17 01:11:32;;;;;;;8.53;7.80;;;9.00;99.90;;;;;;5073713;28;20416;-59
2020/12/17 01:13:59;;;;;;;11.47;9.47;;;9.00;99.90;;;;;;5073325;28;20203;-59
2020/12/17 01:16:24;;;;;;;8.83;8.03;;;9.00;99.90;;;;;;5073426;28;20433;-58
2020/12/17 01:18:50;;;;;;;13.77;9.00;;;9.00;99.90;;;;;;5073100;28;20432;-58
2020/12/17 01:21:17;;;;;;;9.73;8.73;;;9.00;99.90;;;;;;5074637;28;20197;-61
2020/12/17 01:23:43;;;;;;;10.33;9.33;;;9.00;99.90;;;;;;5073543;28;20237;-59
2020/12/17 01:26:09;;;;;;;9.43;8.73;;;9.00;99.90;;;;;;5074040;28;20405;-61
2020/12/17 01:28:39;;;;;;;9.83;8.80;;;8.90;99.90;;;;;;5073638;28;20452;-60
2020/12/17 01:31:06;;;;;;;9.93;8.27;;;9.00;99.90;;;;;;5073811;28;20757;-59
2020/12/17 01:33:32;;;;;;;9.93;9.00;;;9.00;99.90;;;;;;5073461;28;20473;-60
2020/12/17 01:36:04;;;;;;;9.10;8.30;;;9.00;99.90;;;;;;5073987;28;20771;-61
2020/12/17 01:38:29;;;;;;;10.23;8.70;;;9.00;99.90;;;;;;5073497;28;20163;-60
2020/12/17 01:40:55;;;;;;;9.27;8.33;;;9.00;99.90;;;;;;5073602;28;20473;-59
2020/12/17 01:43:21;;;;;;;8.97;8.27;;;9.00;99.90;;;;;;5073409;28;20194;-59
2020/12/17 01:45:47;;;;;;;9.60;8.73;;;9.00;99.90;;;;;;5073363;28;21013;-60
2020/12/17 01:48:16;;;;;;;9.00;8.20;;;9.00;99.90;;;;;;5073265;28;20669;-61
2020/12/17 01:50:44;;;;;;;12.07;8.43;;;9.00;99.90;;;;;;5073494;28;20421;-60
2020/12/17 01:53:10;;;;;;;9.77;8.70;;;9.00;99.90;;;;;;5073029;28;20996;-61
2020/12/17 01:55:35;;;;;;;9.50;8.57;;;9.00;99.90;;;;;;5073589;28;20902;-60
2020/12/17 01:58:03;;;;;;;9.40;8.50;;;8.90;99.90;;;;;;5073037;28;20424;-59
2020/12/17 02:00:34;;;;;;;9.30;8.50;;;9.00;99.90;;;;;;5073089;28;20300;-58
2020/12/17 02:03:04;;;;;;;7.83;7.33;;;8.90;99.90;;;;;;5073397;28;20413;-60
2020/12/17 02:05:30;;;;;;;8.83;8.07;;;9.00;99.90;;;;;;5073051;28;20964;-60
2020/12/17 02:08:00;;;;;;;9.67;8.40;;;8.90;99.90;;;;;;5072986;28;20489;-61
2020/12/17 02:10:27;;;;;;;11.17;8.70;;;8.90;99.90;;;;;;5073210;28;20458;-59
2020/12/17 02:12:53;;;;;;;10.17;9.20;;;9.00;99.90;;;;;;5073264;28;20453;-61
2020/12/17 02:15:21;;;;;;;8.50;7.70;;;8.90;99.90;;;;;;5073265;28;20409;-61
2020/12/17 02:17:48;;;;;;;9.37;8.47;;;9.00;99.90;;;;;;5073117;28;20971;-60
2020/12/17 02:20:14;;;;;;;7.50;6.90;;;8.90;99.90;;;;;;5073171;28;20402;-61
2020/12/17 02:22:40;;;;;;;9.17;8.33;;;8.90;99.90;;;;;;5073525;28;20406;-60
2020/12/17 02:25:14;;;;;;;8.50;7.83;;;9.00;99.90;;;;;;5072995;28;20854;-59
2020/12/17 02:27:40;;;;;;;8.40;7.70;;;9.00;99.90;;;;;;5072513;28;20405;-60
2020/12/17 02:30:08;;;;;;;8.00;7.30;;;9.00;99.90;;;;;;5073556;28;20467;-60
2020/12/17 02:32:35;;;;;;;8.77;7.97;;;9.00;99.90;;;;;;5073297;28;20414;-60
2020/12/17 02:35:00;;;;;;;8.97;8.17;;;9.00;99.90;;;;;;5073468;28;20964;-60
2020/12/17 02:37:26;;;;;;;10.50;9.10;;;8.90;99.90;;;;;;5072993;28;20420;-60
2020/12/17 02:39:52;;;;;;;6.87;6.27;;;9.00;99.90;;;;;;5073318;28;20604;-61
2020/12/17 02:42:18;;;;;;;8.80;8.00;;;9.00;99.90;;;;;;5073088;28;20170;-61
2020/12/17 02:44:44;;;;;;;8.77;7.93;;;8.90;99.90;;;;;;5073149;28;20794;-60
2020/12/17 02:47:09;;;;;;;10.47;7.47;;;9.00;99.90;;;;;;5071190;28;20435;-61
2020/12/17 02:49:35;;;;;;;9.40;7.83;;;8.90;99.90;;;;;;5073227;28;20203;-61
2020/12/17 02:52:01;;;;;;;7.80;7.10;;;8.90;99.90;;;;;;5071845;28;20232;-59
2020/12/17 02:54:27;;;;;;;7.87;7.23;;;9.00;99.90;;;;;;5073080;28;20693;-59
2020/12/17 02:56:52;;;;;;;7.47;6.73;;;8.90;99.90;;;;;;5072719;28;20405;-61
2020/12/17 02:59:18;;;;;;;7.40;6.70;;;9.00;99.90;;;;;;5072814;28;20268;-60
2020/12/17 03:01:43;;;;;;;6.70;6.10;;;9.00;99.90;;;;;;5072968;28;20178;-60
2020/12/17 03:04:09;;;;;;;7.73;7.13;;;8.90;99.90;;;;;;5073078;28;20198;-61
2020/12/17 03:06:34;;;;;;;11.83;6.93;;;8.90;99.90;;;;;;5072895;28;20223;-61
2020/12/17 03:09:00;;;;;;;8.17;7.47;;;8.80;99.90;;;;;;5072923;28;20232;-61
2020/12/17 03:11:26;;;;;;;8.70;7.93;;;8.80;99.90;;;;;;5072976;28;20172;-60
2020/12/17 03:13:51;;;;;;;8.10;7.20;;;8.90;99.90;;;;;;5072614;28;20214;-61
2020/12/17 03:16:18;;;;;;;8.50;7.80;;;8.90;99.90;;;;;;5073067;28;20190;-61
2020/12/17 03:18:43;;;;;;;7.97;7.30;;;8.90;99.90;;;;;;5072538;28;20788;-59
2020/12/17 03:21:09;;;;;;;7.90;7.40;;;8.80;99.90;;;;;;5072223;28;20409;-60
2020/12/17 03:23:34;;;;;;;8.20;7.40;;;8.80;99.90;;;;;;5072145;28;20284;-60
2020/12/17 03:26:00;;;;;;;8.93;8.13;;;8.90;99.90;;;;;;5073053;28;20182;-61
2020/12/17 03:28:25;;;;;;;8.50;7.70;;;8.90;99.90;;;;;;5072758;28;20229;-60
2020/12/17 03:30:51;;;;;;;8.20;7.43;;;8.80;99.90;;;;;;5072596;28;20570;-61
2020/12/17 03:33:16;;;;;;;8.53;7.47;;;8.90;99.90;;;;;;5073203;28;20625;-60
2020/12/17 03:35:42;;;;;;;8.37;7.57;;;8.90;99.90;;;;;;5072523;28;20207;-60
2020/12/17 03:38:07;;;;;;;8.70;7.90;;;8.90;99.90;;;;;;5073048;28;20195;-59
2020/12/17 03:40:33;;;;;;;8.80;7.80;;;8.90;99.90;;;;;;5077060;28;20175;-61
2020/12/17 03:42:59;;;;;;;8.23;7.27;;;8.90;99.90;;;;;;5076802;28;20175;-61
2020/12/17 03:45:24;;;;;;;8.97;8.17;;;8.80;99.90;;;;;;5076662;28;20198;-60
2020/12/17 03:47:50;;;;;;;8.10;7.30;;;8.70;99.90;;;;;;5076417;28;20199;-61
2020/12/17 03:50:15;;;;;;;7.80;7.10;;;8.80;99.90;;;;;;5076496;28;20773;-60
2020/12/17 03:52:41;;;;;;;10.40;6.87;;;8.90;99.90;;;;;;5076584;28;20182;-61
2020/12/17 03:55:07;;;;;;;8.30;7.40;;;8.80;99.90;;;;;;5076548;28;20191;-61
2020/12/17 03:57:32;;;;;;;9.20;7.63;;;8.70;99.90;;;;;;5076119;28;20651;-61
2020/12/17 03:59:58;;;;;;;7.93;7.33;;;8.80;99.90;;;;;;5077047;28;20171;-61
2020/12/17 04:02:24;;;;;;;8.37;7.57;;;8.80;99.90;;;;;;5076417;28;20171;-61
2020/12/17 04:04:49;;;;;;;10.73;8.40;;;8.70;99.90;;;;;;5076012;28;20187;-61
2020/12/17 04:07:16;;;;;;;8.27;7.30;;;8.60;99.90;;;;;;5075719;28;20222;-61
2020/12/17 04:09:42;;;;;;;7.83;7.13;;;8.70;99.90;;;;;;5076595;28;20448;-61
2020/12/17 04:12:08;;;;;;;8.00;6.90;;;8.70;99.90;;;;;;5076131;28;20197;-61
2020/12/17 04:14:34;;;;;;;6.50;6.00;;;8.70;99.90;;;;;;5075666;28;20488;-61
2020/12/17 04:17:00;;;;;;;7.30;6.70;;;8.70;99.90;;;;;;5075794;28;20419;-60
2020/12/17 04:19:26;;;;;;;11.23;7.70;;;8.80;99.90;;;;;;5075933;28;20612;-60
2020/12/17 04:21:51;;;;;;;7.13;6.47;;;8.70;99.90;;;;;;5075999;28;20504;-60
2020/12/17 04:24:17;;;;;;;17.67;7.27;;;8.70;99.90;;;;;;5075999;28;20232;-60
2020/12/17 04:26:49;;;;;;;7.67;7.00;;;8.70;99.90;;;;;;5075724;28;20179;-61
2020/12/17 04:29:14;;;;;;;7.80;7.10;;;8.70;99.90;;;;;;5075766;28;20248;-61
2020/12/17 04:31:40;;;;;;;6.37;5.83;;;8.70;99.90;;;;;;5075978;28;20901;-61
2020/12/17 04:34:05;;;;;;;7.07;6.50;;;8.70;99.90;;;;;;5075621;28;20698;-60
2020/12/17 04:36:32;;;;;;;8.33;7.27;;;8.70;99.90;;;;;;5075417;28;20171;-59
2020/12/17 04:38:58;;;;;;;7.80;7.07;;;8.70;99.90;;;;;;5075651;28;20168;-61
2020/12/17 04:41:25;;;;;;;7.43;6.73;;;8.70;99.90;;;;;;5075779;28;20820;-60
2020/12/17 04:43:51;;;;;;;7.37;6.77;;;8.80;99.90;;;;;;5075615;28;20687;-61
2020/12/17 04:46:19;;;;;;;6.43;5.83;;;8.80;99.90;;;;;;5075782;28;20543;-60
2020/12/17 04:48:46;;;;;;;8.03;7.03;;;8.80;99.90;;;;;;5075240;28;20456;-61
2020/12/17 04:51:13;;;;;;;7.10;6.40;;;8.80;99.90;;;;;;5075779;28;20409;-61
2020/12/17 04:53:44;;;;;;;7.90;7.20;;;8.70;99.90;;;;;;5075430;28;21023;-61
2020/12/17 04:56:14;;;;;;;7.40;6.70;;;8.80;99.90;;;;;;5075246;28;20412;-61
2020/12/17 04:58:49;;;;;;;6.07;5.53;;;8.90;99.90;;;;;;5075169;28;20828;-61
2020/12/17 05:01:17;;;;;;;7.47;6.20;;;8.90;99.90;;;;;;5075467;28;20405;-60
2020/12/17 05:03:48;;;;;;;7.57;5.43;;;8.90;99.90;;;;;;5075022;28;20437;-61
2020/12/17 05:06:24;;;;;;;7.93;6.63;;;8.90;99.90;;;;;;5075028;28;20508;-61
2020/12/17 05:08:51;;;;;;;7.20;6.50;;;8.90;99.90;;;;;;5074946;28;20912;-60
2020/12/17 05:11:17;;;;;;;12.00;6.37;;;8.90;99.90;;;;;;5075191;28;20409;-61
2020/12/17 05:13:43;;;;;;;7.60;6.73;;;8.90;99.90;;;;;;5074908;28;20532;-61
2020/12/17 05:16:08;;;;;;;6.17;5.57;;;8.90;99.90;;;;;;5074692;28;20466;-59
2020/12/17 05:18:34;;;;;;;7.30;6.43;;;8.90;99.90;;;;;;5074763;28;20191;-61
2020/12/17 05:21:01;;;;;;;6.10;5.53;;;8.90;99.90;;;;;;5074776;28;20240;-61
2020/12/17 05:23:28;;;;;;;6.10;5.60;;;9.00;99.90;;;;;;5075122;28;20186;-61
2020/12/17 05:25:55;;;;;;;7.10;6.40;;;9.00;99.90;;;;;;5074811;28;20424;-61
2020/12/17 05:28:21;;;;;;;7.10;6.50;;;9.00;99.90;;;;;;5074678;28;20402;-61
2020/12/17 05:30:46;;;;;;;6.67;6.07;;;8.90;99.90;;;;;;5075305;28;20901;-61
2020/12/17 05:33:12;;;;;;;7.47;6.17;;;8.90;99.90;;;;;;5074741;28;20448;-60
2020/12/17 05:35:41;;;;;;;6.47;5.90;;;8.90;99.90;;;;;;5074938;28;20171;-61
2020/12/17 05:38:10;;;;;;;5.30;4.90;;;8.90;99.90;;;;;;5074574;28;20413;-61
2020/12/17 05:40:43;;;;;;;7.23;6.73;;;8.90;99.90;;;;;;5074533;28;20393;-61
2020/12/17 05:43:09;;;;;;;5.93;5.43;;;8.90;99.90;;;;;;5074138;28;20413;-61
2020/12/17 05:45:36;;;;;;;6.57;6.00;;;8.90;99.90;;;;;;5074216;28;20409;-61
2020/12/17 05:48:10;;;;;;;8.10;6.70;;;8.90;99.90;;;;;;5073949;28;20458;-60
2020/12/17 05:50:51;;;;;;;6.87;6.27;;;8.80;99.90;;;;;;5074464;28;20923;-61
2020/12/17 05:53:17;;;;;;;5.40;5.00;;;8.80;99.90;;;;;;5073850;28;20457;-61
2020/12/17 05:55:43;;;;;;;5.77;5.27;;;8.70;99.90;;;;;;5074330;28;20402;-61
2020/12/17 05:58:11;;;;;;;5.27;4.30;;;8.80;99.90;;;;;;5073677;28;20187;-61
2020/12/17 06:00:37;;;;;;;3.23;3.03;;;8.70;99.90;;;;;;5073694;28;20897;-61
2020/12/17 06:03:02;;;;;;;3.97;3.77;;;8.70;99.90;;;;;;5072403;28;20432;-59
2020/12/17 06:05:30;;;;;;;3.03;2.83;;;8.60;99.90;;;;;;5073703;28;20178;-60
2020/12/17 06:08:00;;;;;;;2.60;2.43;;;8.50;99.90;;;;;;5073397;28;20178;-60
2020/12/17 06:10:30;;;;;;;2.80;2.60;;;8.40;99.90;;;;;;5073676;28;20511;-61
2020/12/17 06:13:00;;;;;;;1.60;1.50;;;8.40;99.90;;;;;;5074084;28;20446;-59
2020/12/17 06:15:28;;;;;;;2.57;2.37;;;8.30;99.90;;;;;;5073181;28;20409;-60
2020/12/17 06:17:58;;;;;;;2.10;2.00;;;8.20;99.90;;;;;;5073434;28;20409;-60
2020/12/17 06:20:26;;;;;;;1.87;1.77;;;8.20;99.90;;;;;;5073347;28;20970;-61
2020/12/17 06:22:57;;;;;;;2.33;2.23;;;8.20;99.90;;;;;;5073525;28;20499;-61
2020/12/17 06:25:24;;;;;;;2.50;2.40;;;8.20;99.90;;;;;;5073171;28;20444;-61
2020/12/17 06:27:50;;;;;;;7.17;3.20;;;8.10;99.90;;;;;;5073232;28;20405;-61
2020/12/17 06:30:22;;;;;;;1.83;1.73;;;8.20;99.90;;;;;;5073514;28;20998;-59
2020/12/17 06:32:48;;;;;;;1.90;1.80;;;8.10;99.90;;;;;;5073518;28;20404;-61
2020/12/17 06:35:41;;;;;;;2.30;2.10;;;8.00;99.90;;;;;;5073082;28;21024;-61
2020/12/17 06:38:11;;;;;;;1.90;1.80;;;8.00;99.90;;;;;;5072750;28;20743;-62
2020/12/17 06:40:37;;;;;;;1.50;1.50;;;7.90;99.90;;;;;;5071676;28;20795;-62
2020/12/17 06:43:11;;;;;;;1.70;1.60;;;7.90;99.90;;;;;;5071165;28;20448;-62
2020/12/17 06:45:37;;;;;;;1.97;1.87;;;7.90;99.90;;;;;;5073358;28;20415;-60
2020/12/17 06:48:47;;;;;;;1.50;1.40;;;7.80;99.90;;;;;;5073421;28;20424;-62
2020/12/17 06:51:29;;;;;;;1.90;1.80;;;7.80;99.90;;;;;;5073380;28;20281;-60
2020/12/17 06:53:55;;;;;;;1.20;1.20;;;7.80;99.90;;;;;;5073000;28;20449;-60
2020/12/17 06:56:21;;;;;;;1.33;1.33;;;7.80;99.90;;;;;;5073230;28;20767;-60
2020/12/17 06:58:46;;;;;;;1.30;1.30;;;7.70;99.90;;;;;;5071391;28;20435;-61
2020/12/17 07:01:23;;;;;;;1.57;1.33;;;7.80;99.90;;;;;;5071818;28;20210;-62
2020/12/17 07:03:50;;;;;;;1.13;1.13;;;7.70;99.90;;;;;;5071553;28;20186;-61
2020/12/17 07:06:23;;;;;;;1.17;1.17;;;7.80;99.90;;;;;;5072907;28;20407;-59
2020/12/17 07:08:57;;;;;;;2.27;2.00;;;7.80;99.90;;;;;;5071818;28;20400;-61
2020/12/17 07:11:33;;;;;;;2.30;1.37;;;7.80;99.90;;;;;;5072478;28;20494;-61
2020/12/17 07:13:59;;;;;;;1.37;1.37;;;7.70;99.90;;;;;;5075024;28;20542;-61
2020/12/17 07:16:26;;;;;;;1.53;1.43;;;7.70;99.90;;;;;;5075709;28;20446;-61
2020/12/17 07:18:52;;;;;;;1.00;1.00;;;7.60;99.90;;;;;;5075579;28;20480;-61
2020/12/17 07:21:26;;;;;;;1.77;1.30;;;7.70;99.90;;;;;;5076671;28;20572;-61
2020/12/17 07:23:52;;;;;;;1.10;1.10;;;7.60;99.90;;;;;;5075554;28;20436;-60
2020/12/17 07:26:18;;;;;;;0.87;0.87;;;7.70;99.90;;;;;;5076354;28;20405;-60
2020/12/17 07:28:53;;;;;;;0.80;0.80;;;7.60;99.90;;;;;;5075285;28;20775;-62
2020/12/17 07:31:27;;;;;;;1.10;1.10;;;7.70;99.90;;;;;;5075477;28;20170;-61
2020/12/17 07:33:54;;;;;;;1.00;1.00;;;7.60;99.90;;;;;;5075076;28;20482;-62
2020/12/17 07:36:43;;;;;;;0.90;0.90;;;7.60;99.90;;;;;;5075332;28;20397;-62
2020/12/17 07:39:09;;;;;;;1.10;1.10;;;7.50;99.90;;;;;;5075219;28;20488;-62
2020/12/17 07:41:35;;;;;;;1.00;1.00;;;7.50;99.90;;;;;;5075324;28;20436;-61
2020/12/17 07:44:00;;;;;;;0.90;0.90;;;7.50;99.90;;;;;;5074795;28;20432;-60
2020/12/17 07:46:44;;;;;;;0.90;0.90;;;7.50;99.90;;;;;;5075214;28;20257;-61
2020/12/17 07:49:21;;;;;;;0.90;0.90;;;7.40;99.90;;;;;;5075092;28;20249;-62
2020/12/17 07:51:46;;;;;;;1.27;0.80;;;7.40;99.90;;;;;;5074990;28;20419;-62
2020/12/17 07:54:13;;;;;;;0.83;0.83;;;7.30;99.90;;;;;;5074800;28;20455;-62
2020/12/17 07:56:39;;;;;;;0.97;0.97;;;7.30;99.90;;;;;;5074518;28;20165;-61
2020/12/17 07:59:06;;;;;;;1.00;1.00;;;7.40;99.90;;;;;;5075340;28;20935;-60
2020/12/17 08:01:32;;;;;;;0.90;0.90;;;7.40;99.90;;;;;;5075694;28;20168;-60
2020/12/17 08:03:58;;;;;;;2.27;2.07;;;7.40;99.90;;;;;;5075614;28;20428;-61
2020/12/17 08:06:26;;;;;;;0.70;0.70;;;7.30;99.90;;;;;;5075412;28;20413;-60
2020/12/17 08:08:57;;;;;;;1.00;0.80;;;7.30;99.90;;;;;;5075117;28;20407;-60
2020/12/17 08:11:25;;;;;;;0.70;0.70;;;7.30;99.90;;;;;;5075530;28;20411;-62
2020/12/17 08:14:06;;;;;;;0.87;0.87;;;7.30;99.90;;;;;;5074967;28;20451;-61
2020/12/17 08:16:33;;;;;;;2.87;0.80;;;7.20;99.90;;;;;;5075093;28;20934;-60
2020/12/17 08:19:00;;;;;;;0.90;0.90;;;7.30;99.90;;;;;;5074860;28;20400;-61
2020/12/17 08:21:27;;;;;;;1.63;0.70;;;7.20;99.90;;;;;;5074553;28;21007;-61
2020/12/17 08:23:53;;;;;;;0.80;0.80;;;7.30;99.90;;;;;;5074104;28;20423;-61
2020/12/17 08:26:27;;;;;;;0.90;0.90;;;7.30;99.90;;;;;;5074537;28;20413;-61
2020/12/17 08:28:53;;;;;;;1.43;1.20;;;7.30;99.90;;;;;;5074566;28;20874;-63
2020/12/17 08:31:29;;;;;;;0.60;0.60;;;7.30;99.90;;;;;;5075247;28;20495;-64
2020/12/17 08:33:57;;;;;;;1.00;0.90;;;7.30;99.90;;;;;;5075658;28;20982;-63
2020/12/17 08:36:34;;;;;;;1.70;0.93;;;7.30;99.90;;;;;;5075922;28;20908;-64
2020/12/17 08:39:06;;;;;;;1.00;1.00;;;7.30;99.90;;;;;;5075186;28;20396;-63
2020/12/17 08:41:37;;;;;;;0.80;0.80;;;7.40;99.90;;;;;;5075450;28;20462;-62
2020/12/17 08:44:04;;;;;;;0.77;0.77;;;7.40;99.90;;;;;;5075521;28;20503;-63
2020/12/17 08:46:36;;;;;;;1.40;1.30;;;7.30;99.90;;;;;;5075255;28;20415;-60
2020/12/17 08:49:06;;;;;;;1.00;0.93;;;7.40;99.90;;;;;;5075111;28;20412;-62
2020/12/17 08:51:32;;;;;;;1.00;1.00;;;7.30;99.90;;;;;;5075290;28;20443;-63
2020/12/17 08:53:58;;;;;;;0.80;0.80;;;7.30;99.90;;;;;;5074459;28;20458;-62
2020/12/17 08:56:24;;;;;;;1.20;1.10;;;7.30;99.90;;;;;;5075099;28;20400;-60
2020/12/17 08:58:53;;;;;;;1.00;1.00;;;7.30;99.90;;;;;;5074484;28;20945;-63
2020/12/17 09:01:35;;;;;;;1.40;1.30;;;7.30;99.90;;;;;;5074904;28;20586;-61
2020/12/17 09:04:10;;;;;;;1.23;1.13;;;7.50;99.90;;;;;;5074156;28;20421;-61
2020/12/17 09:06:37;;;;;;;1.00;1.00;;;7.80;99.90;;;;;;5075676;28;20439;-58
2020/12/17 09:09:27;;;;;;;1.10;0.90;;;8.00;99.90;;;;;;5074471;28;20411;-62
2020/12/17 09:11:55;;;;;;;1.70;1.30;;;8.20;99.90;;;;;;5074705;28;20825;-61
2020/12/17 09:14:30;;;;;;;1.43;1.33;;;8.40;99.90;;;;;;5073906;28;20571;-60
2020/12/17 09:17:10;;;;;;;1.90;1.20;;;8.40;99.90;;;;;;5074574;28;20529;-61
2020/12/17 09:19:35;;;;;;;1.10;1.00;;;8.40;99.90;;;;;;5074870;28;20400;-59
2020/12/17 09:22:01;;;;;;;1.50;1.40;;;8.30;99.90;;;;;;5074233;28;20416;-61
2020/12/17 09:24:30;;;;;;;1.60;1.53;;;8.20;99.90;;;;;;5072204;28;20201;-60
2020/12/17 09:26:57;;;;;;;2.10;1.57;;;8.20;99.90;;;;;;5074579;28;20189;-61
2020/12/17 09:29:22;;;;;;;1.07;1.07;;;8.20;99.90;;;;;;5072620;28;20909;-61
2020/12/17 09:31:48;;;;;;;1.87;1.67;;;8.10;99.90;;;;;;5073513;28;20416;-61
2020/12/17 09:34:16;;;;;;;1.67;1.50;;;8.00;99.90;;;;;;5073549;28;20255;-61
2020/12/17 09:36:55;;;;;;;1.50;1.40;;;8.10;99.90;;;;;;5072800;28;20402;-65
2020/12/17 09:39:21;;;;;;;1.67;1.57;;;8.00;99.90;;;;;;5073463;28;20420;-62
2020/12/17 09:41:55;;;;;;;1.80;1.70;;;8.10;99.90;;;;;;5073215;28;20463;-62
2020/12/17 09:44:32;;;;;;;6.20;1.67;;;8.10;99.90;;;;;;5073497;28;20948;-62
2020/12/17 09:46:58;;;;;;;1.50;1.40;;;8.10;99.90;;;;;;5073006;28;20424;-61
2020/12/17 09:49:29;;;;;;;1.80;1.70;;;8.10;99.90;;;;;;5073040;28;20397;-62
2020/12/17 09:52:09;;;;;;;1.87;1.77;;;8.10;99.90;;;;;;5072106;28;20762;-62
2020/12/17 09:54:43;;;;;;;3.27;1.40;;;8.30;99.90;;;;;;5071649;28;20460;-62
2020/12/17 09:57:14;;;;;;;2.93;2.50;;;8.40;99.90;;;;;;5072223;28;20400;-62
2020/12/17 09:59:44;;;;;;;1.60;1.33;;;8.30;99.90;;;;;;5072981;28;20411;-61
2020/12/17 10:02:13;;;;;;;1.90;1.80;;;8.30;99.90;;;;;;5072674;28;20463;-61
2020/12/17 10:04:42;;;;;;;2.20;1.10;;;8.40;99.90;;;;;;5072663;28;20428;-61
2020/12/17 10:07:09;;;;;;;1.60;1.50;;;8.40;99.90;;;;;;5072233;28;20401;-61
2020/12/17 10:09:36;;;;;;;2.20;1.60;;;8.30;99.90;;;;;;5072685;28;20417;-62
2020/12/17 10:12:02;;;;;;;5.13;2.33;;;8.80;99.90;;;;;;5072705;28;20429;-62
2020/12/17 10:14:28;;;;;;;1.60;1.50;;;9.50;99.90;;;;;;5072620;28;20499;-62
2020/12/17 10:16:59;;;;;;;1.57;1.47;;;10.30;99.90;;;;;;5072726;28;20398;-62
2020/12/17 10:19:26;;;;;;;1.73;1.50;;;10.70;99.90;;;;;;5073246;28;20460;-61
2020/12/17 10:21:52;;;;;;;2.53;1.53;;;11.30;99.90;;;;;;5073834;28;20436;-61
2020/12/17 10:24:17;;;;;;;2.30;1.80;;;11.20;99.90;;;;;;5073103;28;20421;-62
2020/12/17 10:26:43;;;;;;;4.30;1.60;;;10.80;99.90;;;;;;5073236;28;20224;-61
2020/12/17 10:29:09;;;;;;;1.80;1.03;;;10.50;99.90;;;;;;5073149;28;20160;-61
2020/12/17 10:31:35;;;;;;;1.90;1.20;;;10.20;99.90;;;;;;5073915;28;20174;-61
2020/12/17 10:34:00;;;;;;;2.40;1.77;;;10.10;99.90;;;;;;5072897;28;20206;-61
2020/12/17 10:36:26;;;;;;;2.40;1.50;;;9.80;99.90;;;;;;5073154;28;20432;-62
2020/12/17 10:38:52;;;;;;;1.10;1.10;;;9.80;99.90;;;;;;5072622;28;20167;-62
2020/12/17 10:41:26;;;;;;;1.30;1.30;;;10.00;99.90;;;;;;5072967;28;20175;-62
2020/12/17 10:43:53;;;;;;;1.83;1.23;;;10.30;99.90;;;;;;5072921;28;20196;-62
2020/12/17 10:46:19;;;;;;;1.63;1.50;;;10.10;99.90;;;;;;5073078;28;20441;-62
2020/12/17 10:48:45;;;;;;;1.47;1.37;;;10.40;99.90;;;;;;5072723;28;20410;-62
2020/12/17 10:51:16;;;;;;;2.60;1.70;;;10.60;99.90;;;;;;5073433;28;20182;-62
2020/12/17 10:53:42;;;;;;;1.33;1.30;;;11.20;99.90;;;;;;5073593;28;20502;-61
2020/12/17 10:56:09;;;;;;;1.20;1.20;;;11.90;99.90;;;;;;5074202;28;20484;-62
2020/12/17 10:58:35;;;;;;;2.77;1.93;;;12.60;99.90;;;;;;5074243;28;20427;-63
2020/12/17 11:01:01;;;;;;;3.03;2.40;;;13.30;98.70;;;;;;5073658;28;20420;-62
2020/12/17 11:03:26;;;;;;;0.90;0.90;;;13.20;97.70;;;;;;5073294;28;20433;-62
2020/12/17 11:05:53;;;;;;;1.50;1.40;;;13.10;97.80;;;;;;5072545;28;20236;-64
2020/12/17 11:08:19;;;;;;;1.40;1.20;;;13.40;97.60;;;;;;5072657;28;20194;-62
2020/12/17 11:10:45;;;;;;;1.60;1.50;;;13.10;96.80;;;;;;5074180;28;20417;-62
2020/12/17 11:13:10;;;;;;;1.53;1.43;;;12.50;97.50;;;;;;5074717;28;20810;-61
2020/12/17 11:15:36;;;;;;;2.33;1.87;;;12.40;98.90;;;;;;5073059;28;20175;-61
2020/12/17 11:18:01;;;;;;;1.50;1.10;;;12.40;98.50;;;;;;5074038;28;20171;-60
2020/12/17 11:20:27;;;;;;;1.60;1.50;;;12.20;98.10;;;;;;5075402;28;20163;-60
2020/12/17 11:22:53;;;;;;;1.90;1.70;;;11.70;97.70;;;;;;5076004;28;20172;-62
2020/12/17 11:25:18;;;;;;;1.37;1.27;;;11.40;98.30;;;;;;5076573;28;20256;-61
2020/12/17 11:27:44;;;;;;;1.90;1.70;;;11.40;99.10;;;;;;5076236;28;20555;-60
2020/12/17 11:30:09;;;;;;;3.73;2.03;;;11.10;98.90;;;;;;5077040;28;20588;-62
2020/12/17 11:32:36;;;;;;;2.03;1.37;;;11.40;99.60;;;;;;5075568;28;20175;-61
2020/12/17 11:35:06;;;;;;;2.37;1.77;;;11.50;99.60;;;;;;5056360;28;20584;-62
2020/12/17 11:37:33;;;;;;;1.67;1.53;;;11.60;99.20;;;;;;5074291;28;20770;-62
2020/12/17 11:39:59;;;;;;;1.67;1.57;;;11.90;99.00;;;;;;5074830;28;20404;-61
2020/12/17 11:42:25;;;;;;;1.83;1.73;;;11.60;98.50;;;;;;5075995;28;20924;-62
2020/12/17 11:44:50;;;;;;;1.83;1.63;;;11.30;99.70;;;;;;5075226;28;20436;-62
2020/12/17 11:47:16;;;;;;;3.20;1.80;;;11.30;99.20;;;;;;5074404;28;20171;-61
2020/12/17 11:49:41;;;;;;;3.07;1.60;;;11.80;98.80;;;;;;5075674;28;20167;-62
2020/12/17 11:52:07;;;;;;;1.20;1.13;;;11.50;98.20;;;;;;5075768;28;20175;-62
2020/12/17 11:54:33;;;;;;;2.60;1.93;;;11.30;98.20;;;;;;5074063;28;20211;-61
2020/12/17 11:56:58;;;;;;;2.33;1.37;;;11.60;99.10;;;;;;5074996;28;20478;-61
2020/12/17 11:59:24;;;;;;;1.33;1.20;;;11.90;98.00;;;;;;5076244;28;20221;-62
2020/12/17 12:01:50;;;;;;;3.87;2.33;;;11.80;97.80;;;;;;5079904;28;20197;-61
2020/12/17 12:04:15;;;;;;;3.00;1.67;;;11.60;97.30;;;;;;5079048;28;20189;-61
2020/12/17 12:06:41;;;;;;;1.70;1.43;;;11.60;98.00;;;;;;5077485;28;20212;-61
2020/12/17 12:09:07;;;;;;;1.53;1.43;;;11.30;97.60;;;;;;5078669;28;20171;-62
2020/12/17 12:11:33;;;;;;;2.83;1.60;;;11.10;97.80;;;;;;5079031;28;20180;-61
2020/12/17 12:13:59;;;;;;;5.83;2.00;;;11.00;98.30;;;;;;5079025;28;20507;-60
2020/12/17 12:16:25;;;;;;;6.27;1.73;;;10.70;98.00;;;;;;5077424;28;20394;-61
2020/12/17 12:18:50;;;;;;;2.67;1.77;;;10.60;99.30;;;;;;5079496;28;20650;-61
2020/12/17 12:21:17;;;;;;;1.40;1.27;;;10.90;99.00;;;;;;5079064;28;20207;-62
2020/12/17 12:23:44;;;;;;;1.20;1.10;;;10.80;97.80;;;;;;5078407;28;20203;-62
2020/12/17 12:26:10;;;;;;;1.20;1.20;;;10.70;98.30;;;;;;5077249;28;20424;-61
2020/12/17 12:28:38;;;;;;;1.33;1.10;;;10.30;97.90;;;;;;5076207;28;20405;-62
2020/12/17 12:31:04;;;;;;;1.87;1.50;;;11.20;98.50;;;;;;5074435;28;20432;-61
2020/12/17 12:33:31;;;;;;;2.37;1.40;;;12.30;97.30;;;;;;5074514;28;20478;-61
2020/12/17 12:35:57;;;;;;;1.47;1.30;;;13.30;96.20;;;;;;5076483;28;20412;-62
2020/12/17 12:38:23;;;;;;;2.70;1.23;;;13.50;94.80;;;;;;5077768;28;20409;-62
2020/12/17 12:40:49;;;;;;;1.70;1.47;;;14.10;93.60;;;;;;5077945;28;20288;-61
2020/12/17 12:43:14;;;;;;;2.63;1.10;;;14.20;92.60;;;;;;5077814;28;20183;-61
2020/12/17 12:45:40;;;;;;;3.93;1.87;;;14.60;91.90;;;;;;5077331;28;20227;-62
2020/12/17 12:48:06;;;;;;;2.20;2.00;;;14.10;91.30;;;;;;5077422;28;20250;-62
2020/12/17 12:50:31;;;;;;;2.13;1.37;;;14.10;92.20;;;;;;5076516;28;20779;-62
2020/12/17 12:52:57;;;;;;;3.17;1.77;;;14.30;92.00;;;;;;5076813;28;20178;-62
2020/12/17 12:55:22;;;;;;;2.10;1.30;;;14.50;91.90;;;;;;5076827;28;20198;-61